PrinceSS Dina — 9LU2153 — position and weather

sailwx.info

Track history (hours):
 
Tides and Currents Weather Stations Pressure Air Temp Water Temp Dewpoint Dewpoint Depression Visibility Wind Speed Wind Dir Waves Ship Positions

PrinceSS Dina

Last reported at 2017-Dec-21 15:15 UTC. Time now 2018-Feb-20 04:10 UTC.
Position N 33°45' E 034°28'.
Warning: this ship's position is months out of date.

Length 106 m; draft 6.5 m.

Type: Cargo ship. MMSI: 667001350.

Date/timePositionNaut miles runAvg speedWind from/ knotsBaromVisibWave heightAir tempDewpointWater temp
2017-Dec-21 15:15N 33°45' E 034°28'310.1
2017-Dec-21 14:57N 33°43' E 034°25'810.2
2017-Dec-21 14:11N 33°38' E 034°18'210.2
2017-Dec-21 13:59N 33°36' E 034°16'510.1
2017-Dec-21 13:28N 33°33' E 034°11'5 9.9
2017-Dec-21 13:00N 33°30' E 034°06'3010.1
2017-Dec-21 10:03N 33°12' E 033°38'010.0
2017-Dec-21 10:00N 33°12' E 033°38'510.1
2017-Dec-21 09:30N 33°08' E 033°34'6 9.9
2017-Dec-21 08:55N 33°04' E 033°28'4 9.9
2017-Dec-21 08:30N 33°02' E 033°25'5 9.9
2017-Dec-21 08:00N 32°58' E 033°21'8 9.7
2017-Dec-21 07:09N 32°52' E 033°14'1 9.8
2017-Dec-21 07:00N 32°51' E 033°12'  
Track history (hours):
 
Tides and Currents Weather Stations Pressure Air Temp Water Temp Dewpoint Dewpoint Depression Visibility Wind Speed Wind Dir Waves Ship Positions

PrinceSS Dina

Last reported at 2017-Dec-21 15:15 UTC. Time now 2018-Feb-20 04:10 UTC.
Position N 33°45' E 034°28'.
Warning: this ship's position is months out of date.

Length 106 m; draft 6.5 m.

Type: Cargo ship. MMSI: 667001350.

Date/timePositionNaut miles runAvg speedWind from/ knotsBaromVisibWave heightAir tempDewpointWater temp
2017-Dec-21 15:15N 33°45' E 034°28'310.1
2017-Dec-21 14:57N 33°43' E 034°25'810.2
2017-Dec-21 14:11N 33°38' E 034°18'210.2
2017-Dec-21 13:59N 33°36' E 034°16'510.1
2017-Dec-21 13:28N 33°33' E 034°11'5 9.9
2017-Dec-21 13:00N 33°30' E 034°06'3010.1
2017-Dec-21 10:03N 33°12' E 033°38'010.0
2017-Dec-21 10:00N 33°12' E 033°38'510.1
2017-Dec-21 09:30N 33°08' E 033°34'6 9.9
2017-Dec-21 08:55N 33°04' E 033°28'4 9.9
2017-Dec-21 08:30N 33°02' E 033°25'5 9.9
2017-Dec-21 08:00N 32°58' E 033°21'8 9.7
2017-Dec-21 07:09N 32°52' E 033°14'1 9.8
2017-Dec-21 07:00N 32°51' E 033°12'  

Dump ship's entire track history